Time;durP1;ratioP1;P1;durP2;ratioP2;P2;SDS_P1;SDS_P2;PMS_P1;PMS_P2;Temp;Humidity;BMP_temperature;BMP_pressure;BME280_temperature;BME280_humidity;BME280_pressure;Samples;Min_cycle;Max_cycle;Signal;HPM_P1;HPM_P2
2022/11/02 00:00:24;;;;;;;5.17;3.00;;;;;;;10.85;100.00;96918.06;5086517;28;20205;-80
2022/11/02 00:02:51;;;;;;;6.23;3.40;;;;;;;10.78;100.00;96914.59;5084916;28;20208;-80
2022/11/02 00:05:22;;;;;;;5.33;3.10;;;;;;;10.80;100.00;96918.69;5081401;28;20279;-80
2022/11/02 00:07:52;;;;;;;7.73;3.00;;;;;;;10.85;100.00;96923.47;5087061;28;20205;-80
2022/11/02 00:10:20;;;;;;;10.20;3.07;;;;;;;10.83;100.00;96922.84;5074748;28;20220;-80
2022/11/02 00:12:47;;;;;;;4.83;2.70;;;;;;;10.74;100.00;96930.38;5088328;28;20196;-80
2022/11/02 00:15:14;;;;;;;4.63;2.80;;;;;;;10.54;100.00;96921.59;5086965;28;20224;-80
2022/11/02 00:17:47;;;;;;;6.07;3.40;;;;;;;10.42;100.00;96934.09;5087286;28;20251;-80
2022/11/02 00:20:16;;;;;;;3.87;2.80;;;;;;;10.40;100.00;96928.91;5078772;28;20225;-80
2022/11/02 00:22:46;;;;;;;5.83;2.90;;;;;;;10.44;100.00;96924.75;5082216;28;20202;-80
2022/11/02 00:25:17;;;;;;;5.73;2.90;;;;;;;10.42;100.00;96934.91;5087387;28;20292;-80
2022/11/02 00:27:45;;;;;;;4.73;2.80;;;;;;;10.41;100.00;96946.75;5083610;28;20213;-80
2022/11/02 00:30:15;;;;;;;3.57;3.00;;;;;;;10.42;100.00;96926.81;5082167;28;20334;-80
2022/11/02 00:32:42;;;;;;;5.57;2.50;;;;;;;10.53;100.00;96936.94;5085039;28;20201;-80
2022/11/02 00:35:10;;;;;;;3.50;2.47;;;;;;;10.60;100.00;96935.03;5076097;28;20255;-80
2022/11/02 00:37:38;;;;;;;4.43;3.03;;;;;;;10.69;100.00;96942.88;5078496;28;20208;-80
2022/11/02 00:40:06;;;;;;;4.80;3.10;;;;;;;10.73;100.00;96933.28;5075107;28;20227;-80
2022/11/02 00:42:35;;;;;;;8.13;2.70;;;;;;;10.76;100.00;96939.09;5082934;28;20204;-80
2022/11/02 00:45:02;;;;;;;8.80;2.80;;;;;;;10.72;100.00;96939.78;5085345;28;20289;-80
2022/11/02 00:47:29;;;;;;;4.27;2.70;;;;;;;10.77;100.00;96948.03;5086508;28;20224;-80
2022/11/02 00:49:56;;;;;;;6.53;2.70;;;;;;;10.79;100.00;96948.66;5089429;28;20211;-80
2022/11/02 00:52:24;;;;;;;5.37;2.73;;;;;;;10.85;100.00;96947.78;5086577;28;20205;-80
2022/11/02 00:54:52;;;;;;;5.90;2.50;;;;;;;10.86;100.00;96952.97;5077625;28;20193;-80
2022/11/02 00:57:19;;;;;;;3.60;2.90;;;;;;;10.90;100.00;96959.56;5083254;28;20271;-80
2022/11/02 00:59:48;;;;;;;5.60;2.60;;;;;;;10.94;100.00;96957.28;5083603;28;20296;-80
2022/11/02 01:02:16;;;;;;;3.80;3.03;;;;;;;10.98;100.00;96963.91;5087592;28;20220;-80
2022/11/02 01:04:43;;;;;;;5.03;2.67;;;;;;;10.98;100.00;96953.09;5084677;28;20204;-80
2022/11/02 01:07:12;;;;;;;7.37;2.60;;;;;;;10.95;100.00;96959.78;5079679;28;20197;-80
2022/11/02 01:09:39;;;;;;;5.30;2.57;;;;;;;10.89;100.00;96954.38;5089266;28;20200;-80
2022/11/02 01:12:07;;;;;;;10.47;2.80;;;;;;;10.84;100.00;96951.53;5082437;28;20210;-80
2022/11/02 01:14:34;;;;;;;6.70;2.60;;;;;;;10.89;100.00;96954.38;5086169;28;20196;-80
2022/11/02 01:17:03;;;;;;;4.50;2.07;;;;;;;10.94;100.00;96957.28;5080627;28;20228;-80
2022/11/02 01:19:30;;;;;;;7.57;2.33;;;;;;;10.96;100.00;96956.03;5082760;28;20217;-80
2022/11/02 01:21:58;;;;;;;4.57;2.77;;;;;;;11.03;100.00;96950.56;5082660;28;20197;-80
2022/11/02 01:24:25;;;;;;;7.10;2.30;;;;;;;11.04;100.00;96941.44;5084558;28;20201;-80
2022/11/02 01:26:55;;;;;;;6.23;2.30;;;;;;;11.13;100.00;96948.22;5078291;28;20236;-80
2022/11/02 01:29:22;;;;;;;5.57;2.80;;;;;;;11.14;100.00;96947.19;5076073;28;20294;-80
2022/11/02 01:31:49;;;;;;;3.33;2.43;;;;;;;11.15;100.00;96948.81;5081313;28;20200;-80
2022/11/02 01:34:19;;;;;;;5.77;2.30;;;;;;;11.15;100.00;96940.69;5084711;28;20229;-80
2022/11/02 01:36:46;;;;;;;3.73;1.97;;;;;;;11.17;100.00;96949.41;5083752;28;20262;-80
2022/11/02 01:39:13;;;;;;;3.80;2.20;;;;;;;11.17;100.00;96946.72;5077674;28;20270;-80
2022/11/02 01:41:43;;;;;;;3.83;2.03;;;;;;;11.17;100.00;96935.91;5079359;28;20201;-80
2022/11/02 01:44:34;;;;;;;3.73;2.03;;;;;;;11.19;100.00;96933.81;5086324;28;20197;-80
2022/11/02 01:47:05;;;;;;;2.40;1.90;;;;;;;11.24;100.00;96942.09;5074838;28;20202;-80
2022/11/02 01:49:38;;;;;;;4.03;1.90;;;;;;;11.26;100.00;96934.59;5084677;28;20292;-80
2022/11/02 01:52:09;;;;;;;3.20;2.53;;;;;;;11.32;100.00;96928.28;5080856;28;20280;-80
2022/11/02 01:54:43;;;;;;;2.57;2.13;;;;;;;11.38;100.00;96935.53;5087050;28;20197;-80
2022/11/02 01:57:13;;;;;;;4.47;2.17;;;;;;;11.40;100.00;96919.06;5083563;28;20283;-80
2022/11/02 01:59:45;;;;;;;4.33;1.70;;;;;;;11.44;100.00;96936.53;5080905;28;20213;-80
2022/11/02 02:02:18;;;;;;;4.27;2.33;;;;;;;11.44;100.00;96919.47;5083638;28;20211;-80
2022/11/02 02:04:51;;;;;;;3.33;2.20;;;;;;;11.41;100.00;96907.22;5079106;28;20273;-80
2022/11/02 02:07:22;;;;;;;3.53;2.33;;;;;;;11.49;100.00;96919.63;5077029;28;20312;-80
2022/11/02 02:09:52;;;;;;;3.60;2.00;;;;;;;11.46;100.00;96911.97;5089943;28;20341;-80
2022/11/02 02:12:21;;;;;;;6.37;2.10;;;;;;;11.50;100.00;96916.69;5086496;28;20292;-80
2022/11/02 02:14:49;;;;;;;2.90;1.97;;;;;;;11.44;100.00;96909.50;5084247;28;20208;-80
2022/11/02 02:17:32;;;;;;;5.53;2.00;;;;;;;11.54;100.00;96931.44;5083582;28;20224;-80
2022/11/02 02:20:08;;;;;;;5.57;2.63;;;;;;;11.55;100.00;96926.88;5088957;28;20300;-80
2022/11/02 02:22:58;;;;;;;3.27;2.10;;;;;;;11.55;100.00;96916.88;5075055;28;20268;-80
2022/11/02 02:26:01;;;;;;;3.03;2.30;;;;;;;11.56;100.00;96918.53;5085393;28;20285;-81
2022/11/02 02:28:34;;;;;;;6.47;2.60;;;;;;;11.60;100.00;96913.50;5082666;28;20208;-80
2022/11/02 02:31:09;;;;;;;5.87;2.50;;;;;;;11.57;100.00;96913.97;5087202;28;20215;-80
2022/11/02 02:33:43;;;;;;;3.67;2.30;;;;;;;11.56;100.00;96912.31;5085313;28;20482;-80
2022/11/02 02:36:20;;;;;;;3.97;2.67;;;;;;;11.54;100.00;96915.22;5084593;28;20266;-80
2022/11/02 02:38:58;;;;;;;3.80;2.20;;;;;;;11.52;100.00;96906.50;5081340;28;20311;-80
2022/11/02 02:41:36;;;;;;;6.83;2.80;;;;;;;11.55;100.00;96914.19;5086583;28;20239;-80
2022/11/02 02:44:07;;;;;;;6.97;2.87;;;;;;;11.54;100.00;96903.56;5084434;28;20201;-80
2022/11/02 02:46:41;;;;;;;5.80;2.50;;;;;;;11.58;100.00;96900.19;5080203;28;20228;-80
2022/11/02 02:49:11;;;;;;;4.23;2.37;;;;;;;11.64;100.00;96906.59;5087698;28;20492;-80
2022/11/02 02:51:41;;;;;;;3.87;1.97;;;;;;;11.74;100.00;96898.78;5084943;28;20287;-80
2022/11/02 02:54:13;;;;;;;4.03;2.27;;;;;;;11.77;100.00;96903.78;5083493;28;20254;-80
2022/11/02 02:56:47;;;;;;;2.97;1.90;;;;;;;11.81;100.00;96899.59;5084125;28;20304;-80
2022/11/02 02:59:21;;;;;;;2.83;1.77;;;;;;;11.84;100.00;96903.69;5083029;28;20200;-80
2022/11/02 03:01:50;;;;;;;4.67;2.40;;;;;;;11.89;100.00;96901.16;5080369;28;20223;-80
2022/11/02 03:04:17;;;;;;;6.37;2.43;;;;;;;11.87;100.00;96904.09;5085612;28;20197;-80
2022/11/02 03:06:48;;;;;;;4.37;2.00;;;;;;;11.85;100.00;96911.59;5083666;28;20305;-80
2022/11/02 03:09:20;;;;;;;5.63;2.20;;;;;;;11.83;100.00;96912.88;5085166;28;20246;-80
2022/11/02 03:11:59;;;;;;;2.93;1.83;;;;;;;11.78;100.00;96910.84;5077290;28;20205;-80
2022/11/02 03:14:40;;;;;;;5.83;2.37;;;;;;;11.73;100.00;96918.78;5085269;28;20201;-80
2022/11/02 03:17:17;;;;;;;3.27;2.10;;;;;;;11.62;100.00;96908.69;5081744;28;20227;-80
2022/11/02 03:19:53;;;;;;;3.43;2.63;;;;;;;11.48;100.00;96909.88;5079676;28;20308;-80
2022/11/02 03:22:30;;;;;;;7.50;2.70;;;;;;;11.42;100.00;96910.75;5083007;28;20338;-80
2022/11/02 03:25:05;;;;;;;4.17;2.67;;;;;;;11.37;100.00;96919.53;5077740;28;20206;-80
2022/11/02 03:27:41;;;;;;;4.83;2.57;;;;;;;11.34;100.00;96914.56;5079221;28;20211;-80
2022/11/02 03:30:15;;;;;;;4.53;2.00;;;;;;;11.30;100.00;96908.78;5085177;28;20204;-80
2022/11/02 03:32:51;;;;;;;4.63;2.40;;;;;;;11.23;100.00;96918.81;5081647;28;20205;-80
2022/11/02 03:35:22;;;;;;;6.67;2.60;;;;;;;11.11;100.00;96912.47;5079108;28;20247;-80
2022/11/02 03:37:56;;;;;;;5.03;2.73;;;;;;;11.02;100.00;96918.34;5079605;28;20225;-80
2022/11/02 03:40:28;;;;;;;4.20;2.67;;;;;;;10.95;100.00;96918.41;5080762;28;20212;-80
2022/11/02 03:42:58;;;;;;;4.63;2.83;;;;;;;10.90;100.00;96919.06;5096753;28;20292;-80
2022/11/02 03:45:35;;;;;;;4.57;2.67;;;;;;;10.88;100.00;96928.44;5076253;28;20205;-80
2022/11/02 03:48:07;;;;;;;4.33;2.63;;;;;;;10.86;100.00;96927.81;5076366;28;20211;-80
2022/11/02 03:50:36;;;;;;;5.00;2.57;;;;;;;10.86;100.00;96927.81;5084757;28;20201;-80
2022/11/02 03:53:10;;;;;;;5.43;3.30;;;;;;;10.83;100.00;96933.66;5081967;28;20212;-80
2022/11/02 03:55:46;;;;;;;4.80;3.00;;;;;;;10.83;100.00;96939.06;5078980;28;20227;-80
2022/11/02 03:58:14;;;;;;;4.57;3.27;;;;;;;10.82;100.00;96942.81;5084497;28;20197;-80
2022/11/02 04:00:51;;;;;;;7.23;3.43;;;;;;;10.84;100.00;96943.41;5085237;28;20289;-80
2022/11/02 04:03:21;;;;;;;3.40;2.70;;;;;;;10.84;100.00;96938.00;5083413;28;20209;-80
2022/11/02 04:05:48;;;;;;;6.27;2.70;;;;;;;10.85;100.00;96948.59;5075289;28;20212;-80
2022/11/02 04:08:28;;;;;;;6.57;3.20;;;;;;;10.81;100.00;96944.66;5080153;28;20200;-80
2022/11/02 04:16:37;;;;;;;5.70;3.07;;;;;;;10.65;100.00;96941.66;5105957;28;20309;-80
2022/11/02 04:19:26;;;;;;;4.40;3.30;;;;;;;10.61;100.00;96952.91;5088276;28;20221;-80
2022/11/02 04:27:26;;;;;;;6.07;3.40;;;;;;;10.53;100.00;96960.44;5084071;28;20201;-80
2022/11/02 04:29:53;;;;;;;6.07;3.87;;;;;;;10.43;100.00;96960.88;5086843;28;20201;-80
2022/11/02 04:35:05;;;;;;;6.80;3.53;;;;;;;10.30;100.00;96960.91;5078972;28;20243;-80
2022/11/02 04:40:23;;;;;;;6.20;3.20;;;;;;;10.31;100.00;96967.97;5088779;28;20236;-80
2022/11/02 04:42:50;;;;;;;6.57;3.20;;;;;;;10.31;100.00;96962.56;5085772;28;20193;-80
2022/11/02 04:45:17;;;;;;;5.33;3.00;;;;;;;10.29;100.00;96967.38;5083789;28;20216;-80
2022/11/02 04:47:46;;;;;;;5.37;3.33;;;;;;;10.27;100.00;96961.38;5086593;28;20200;-80
2022/11/02 04:50:13;;;;;;;6.40;2.97;;;;;;;10.24;100.00;96975.28;5085268;28;20212;-80
2022/11/02 04:52:41;;;;;;;6.03;3.33;;;;;;;10.12;100.00;96958.06;5085482;28;20185;-80
2022/11/02 04:55:12;;;;;;;4.10;3.43;;;;;;;10.16;100.00;96970.91;5077834;28;20194;-80
2022/11/02 04:57:45;;;;;;;6.23;3.37;;;;;;;10.12;100.00;96974.25;5099455;28;20225;-80
2022/11/02 05:00:15;;;;;;;6.33;3.27;;;;;;;10.07;100.00;96966.78;5089194;28;20291;-80
2022/11/02 05:02:43;;;;;;;9.07;4.20;;;;;;;10.07;100.00;96965.94;5083274;28;20292;-80
2022/11/02 05:05:13;;;;;;;7.63;3.03;;;;;;;10.06;100.00;96970.53;5088402;28;20247;-80
2022/11/02 05:07:41;;;;;;;7.80;4.07;;;;;;;10.06;100.00;96964.28;5087103;28;20246;-80
2022/11/02 05:10:09;;;;;;;6.70;3.87;;;;;;;10.05;100.00;96968.03;5085117;28;20197;-80
2022/11/02 05:12:39;;;;;;;8.77;4.20;;;;;;;10.08;100.00;96963.06;5087488;28;20193;-80
2022/11/02 05:15:07;;;;;;;5.23;3.90;;;;;;;10.01;100.00;96964.09;5080448;28;20205;-80
2022/11/02 05:17:37;;;;;;;5.53;3.33;;;;;;;9.96;100.00;96963.91;5084434;28;20307;-80
2022/11/02 05:20:04;;;;;;;5.03;3.40;;;;;;;9.94;100.00;96958.75;5084824;28;20278;-80
2022/11/02 05:22:34;;;;;;;5.00;3.23;;;;;;;9.91;100.00;96951.06;5089262;28;20189;-80
2022/11/02 05:25:01;;;;;;;4.27;2.93;;;;;;;9.85;100.00;96946.50;5085333;28;20224;-80
2022/11/02 05:27:29;;;;;;;6.73;3.37;;;;;;;9.84;100.00;96953.78;5084024;28;20200;-80
2022/11/02 05:29:56;;;;;;;4.87;3.60;;;;;;;9.84;100.00;96952.94;5085278;28;20197;-80
2022/11/02 05:32:23;;;;;;;9.53;3.10;;;;;;;9.84;100.00;96953.78;5079163;28;20206;-80
2022/11/02 05:34:50;;;;;;;5.27;2.97;;;;;;;9.86;100.00;96957.09;5078648;28;20236;-80
2022/11/02 05:37:17;;;;;;;3.90;2.80;;;;;;;9.84;100.00;96950.25;5079105;28;20224;-80
2022/11/02 05:39:48;;;;;;;6.80;3.00;;;;;;;9.85;100.00;96947.34;5086462;28;20197;-80
2022/11/02 05:42:16;;;;;;;6.23;2.70;;;;;;;9.81;100.00;96954.19;5084498;28;20202;-80
2022/11/02 05:44:43;;;;;;;5.70;3.63;;;;;;;9.81;100.00;96956.88;5082663;28;20201;-80
2022/11/02 05:47:10;;;;;;;5.57;2.97;;;;;;;9.79;100.00;96952.72;5085397;28;20197;-80
2022/11/02 05:49:38;;;;;;;6.53;3.27;;;;;;;9.77;100.00;96949.44;5102243;28;20264;-80
2022/11/02 05:52:06;;;;;;;6.63;3.20;;;;;;;9.68;100.00;96956.91;5083630;28;20198;-80
2022/11/02 05:54:33;;;;;;;4.23;2.83;;;;;;;9.66;100.00;96963.56;5078079;28;20209;-80
2022/11/02 05:57:02;;;;;;;4.67;3.20;;;;;;;9.66;100.00;96963.56;5081168;28;20248;-80
2022/11/02 05:59:29;;;;;;;5.30;3.10;;;;;;;9.65;100.00;96959.19;5085139;28;20194;-80
2022/11/02 06:01:56;;;;;;;5.23;3.00;;;;;;;9.62;100.00;96963.13;5086916;28;20208;-80
2022/11/02 06:04:23;;;;;;;4.03;2.80;;;;;;;9.67;100.00;96968.75;5091047;28;20197;-79
2022/11/02 06:06:50;;;;;;;6.33;3.07;;;;;;;9.65;100.00;96973.50;5075410;28;20216;-80
2022/11/02 06:09:17;;;;;;;4.87;3.03;;;;;;;9.67;100.00;96976.84;5086165;28;20197;-80
2022/11/02 06:11:44;;;;;;;7.60;2.77;;;;;;;9.67;100.00;96982.22;5082396;28;20201;-80
2022/11/02 06:14:13;;;;;;;4.47;2.80;;;;;;;9.62;100.00;96968.53;5080574;28;20197;-80
2022/11/02 06:16:40;;;;;;;5.03;3.30;;;;;;;9.82;100.00;96990.91;5083886;28;20196;-80
2022/11/02 06:19:07;;;;;;;11.80;6.40;;;;;;;9.96;100.00;97001.66;5087527;28;20228;-80
2022/11/02 06:21:34;;;;;;;11.03;3.97;;;;;;;10.04;100.00;97004.13;5080894;28;20201;-80
2022/11/02 06:24:02;;;;;;;6.90;3.37;;;;;;;10.06;100.00;97007.47;5081677;28;20198;-80
2022/11/02 06:26:29;;;;;;;4.87;2.87;;;;;;;9.99;100.00;97001.25;5081125;28;20229;-80
2022/11/02 06:28:55;;;;;;;7.57;3.70;;;;;;;9.98;100.00;97016.63;5074975;28;20201;-80
2022/11/02 06:31:24;;;;;;;9.00;3.93;;;;;;;9.95;100.00;97027.00;5071883;28;20201;-80
2022/11/02 06:33:51;;;;;;;7.97;4.30;;;;;;;9.92;100.00;97022.03;5078837;28;20288;-80
2022/11/02 06:36:18;;;;;;;6.37;3.70;;;;;;;9.93;100.00;97021.00;5078542;28;20224;-80
2022/11/02 06:38:46;;;;;;;9.07;4.13;;;;;;;9.92;100.00;97024.72;5080987;28;20221;-81
2022/11/02 06:41:13;;;;;;;6.83;4.43;;;;;;;9.93;100.00;97023.69;5074701;28;20254;-81
2022/11/02 06:43:40;;;;;;;10.63;4.50;;;;;;;9.86;100.00;97024.53;5081455;28;20196;-80
2022/11/02 06:46:07;;;;;;;7.00;3.43;;;;;;;9.81;100.00;97036.97;5076638;28;20201;-80
2022/11/02 06:48:36;;;;;;;6.20;3.97;;;;;;;9.81;100.00;97035.09;5076785;28;20208;-81
2022/11/02 06:51:04;;;;;;;11.77;3.90;;;;;;;9.85;100.00;97039.06;5081908;28;20258;-81
2022/11/02 06:53:31;;;;;;;9.00;3.00;;;;;;;9.88;100.00;97046.72;5079706;28;20198;-80
2022/11/02 06:55:59;;;;;;;5.30;2.87;;;;;;;9.92;100.00;97054.41;5083295;28;20269;-81
2022/11/02 06:58:32;;;;;;;6.93;3.97;;;;;;;9.93;100.00;97054.19;5085305;28;20221;-80
2022/11/02 07:01:01;;;;;;;8.67;3.30;;;;;;;9.95;100.00;97070.19;5077186;28;20210;-81
2022/11/02 07:03:29;;;;;;;8.07;4.10;;;;;;;9.98;100.00;97069.75;5075291;28;20200;-81
2022/11/02 07:05:58;;;;;;;8.00;4.07;;;;;;;9.99;100.00;97083.03;5079290;28;20216;-81
2022/11/02 07:08:26;;;;;;;6.43;4.10;;;;;;;10.01;100.00;97082.81;5083439;28;20190;-82
2022/11/02 07:10:53;;;;;;;7.87;3.70;;;;;;;10.03;100.00;97086.16;5083536;28;20197;-80
2022/11/02 07:13:20;;;;;;;5.70;3.13;;;;;;;9.99;100.00;97093.00;5085163;28;20205;-80
2022/11/02 07:15:51;;;;;;;5.23;3.13;;;;;;;10.02;100.00;97087.19;5085323;28;20196;-80
2022/11/02 07:18:18;;;;;;;8.47;3.43;;;;;;;10.10;100.00;97100.47;5081691;28;20216;-80
2022/11/02 07:20:45;;;;;;;5.03;3.50;;;;;;;10.22;100.00;97105.03;5086661;28;20197;-80
2022/11/02 07:23:13;;;;;;;10.27;3.50;;;;;;;10.24;100.00;97107.53;5083827;28;20209;-80
2022/11/02 07:25:41;;;;;;;6.37;3.40;;;;;;;10.22;100.00;97112.28;5086488;28;20200;-80
2022/11/02 07:28:09;;;;;;;5.40;3.20;;;;;;;10.23;100.00;97111.25;5082030;28;20232;-80
2022/11/02 07:30:36;;;;;;;6.30;3.77;;;;;;;10.19;100.00;97104.63;5082392;28;20248;-80
2022/11/02 07:33:03;;;;;;;5.47;3.57;;;;;;;10.24;100.00;97123.72;5085400;28;20220;-80
2022/11/02 07:35:30;;;;;;;6.90;3.17;;;;;;;10.28;100.00;97122.28;5083843;28;20225;-80
2022/11/02 07:37:58;;;;;;;7.73;3.20;;;;;;;10.35;100.00;97131.19;5084410;28;20228;-81
2022/11/02 07:40:28;;;;;;;5.10;3.03;;;;;;;10.37;100.00;97125.59;5089796;28;20200;-80
2022/11/02 07:42:55;;;;;;;6.97;3.30;;;;;;;10.35;100.00;97125.78;5084644;28;20232;-80
2022/11/02 07:45:32;;;;;;;5.60;3.17;;;;;;;10.45;100.00;97128.91;5078865;28;20199;-81
2022/11/02 07:48:00;;;;;;;7.07;2.83;;;;;;;10.56;100.00;97132.81;5088963;28;20224;-81
2022/11/02 07:50:27;;;;;;;9.23;3.33;;;;;;;10.58;100.00;97119.94;5090287;28;20203;-80
2022/11/02 07:52:55;;;;;;;4.27;3.27;;;;;;;10.60;100.00;97124.09;5077382;28;20247;-80
2022/11/02 07:55:24;;;;;;;7.10;3.70;;;;;;;10.73;100.00;97125.91;5080692;28;20219;-80
2022/11/02 07:57:58;;;;;;;6.53;3.47;;;;;;;10.84;100.00;97129.84;5082007;28;20255;-80
2022/11/02 08:00:28;;;;;;;3.90;2.80;;;;;;;11.00;100.00;97134.75;5084077;28;20296;-81
2022/11/02 08:02:55;;;;;;;5.23;3.60;;;;;;;11.13;100.00;97128.47;5088593;28;20207;-80
2022/11/02 08:05:23;;;;;;;4.20;2.70;;;;;;;11.27;100.00;97130.91;5087957;28;20204;-81
2022/11/02 08:07:57;;;;;;;9.23;3.07;;;;;;;11.38;100.00;97135.63;5086195;28;20201;-81
2022/11/02 08:10:25;;;;;;;8.37;3.10;;;;;;;11.47;100.00;97130.81;5101300;28;20197;-80
2022/11/02 08:12:52;;;;;;;6.73;2.80;;;;;;;11.50;100.00;97134.94;5089917;28;20197;-81
2022/11/02 08:15:20;;;;;;;6.70;3.60;;;;;;;11.54;100.00;97133.47;5087905;28;20313;-81
2022/11/02 08:17:48;;;;;;;7.73;3.43;;;;;;;11.56;100.00;97136.78;5085372;28;20208;-81
2022/11/02 08:20:15;;;;;;;8.23;3.40;;;;;;;11.59;100.00;97139.03;5090459;28;20217;-81
2022/11/02 08:22:42;;;;;;;7.77;3.30;;;;;;;11.64;100.00;97139.25;5086481;28;20283;-80
2022/11/02 08:25:10;;;;;;;6.67;3.13;;;;;;;11.69;100.00;97129.41;5081549;28;20296;-83
2022/11/02 08:27:37;;;;;;;4.83;2.70;;;;;;;11.68;100.00;97124.22;5090303;28;20227;-81
2022/11/02 08:30:06;;;;;;;4.53;3.10;;;;;;;11.79;100.00;97131.69;5083552;28;20216;-81
2022/11/02 08:32:34;;;;;;;6.27;2.57;;;;;;;11.80;100.00;97124.38;5078240;28;20197;-80
2022/11/02 08:35:01;;;;;;;5.70;2.73;;;;;;;11.88;100.00;97130.38;5088507;28;20324;-80
2022/11/02 08:37:28;;;;;;;5.03;2.40;;;;;;;11.93;100.00;97127.81;5084400;28;20220;-81
2022/11/02 08:39:55;;;;;;;4.47;2.60;;;;;;;11.98;100.00;97127.16;5087188;28;20242;-81
2022/11/02 08:42:23;;;;;;;5.43;2.90;;;;;;;12.03;100.00;97135.44;5090478;28;20208;-81
2022/11/02 08:44:50;;;;;;;5.00;3.30;;;;;;;12.11;100.00;97133.28;5078797;28;20197;-80
2022/11/02 08:47:17;;;;;;;6.03;2.77;;;;;;;12.25;100.00;97133.19;5090291;28;20205;-81
2022/11/02 08:49:46;;;;;;;9.97;4.90;;;;;;;12.40;100.00;97137.22;5082495;28;20204;-81
2022/11/02 08:52:13;;;;;;;6.03;3.07;;;;;;;12.54;100.00;97137.91;5081509;28;20203;-80
2022/11/02 08:54:41;;;;;;;7.27;2.53;;;;;;;12.65;100.00;97133.66;5085040;28;20197;-81
2022/11/02 08:57:08;;;;;;;5.70;3.03;;;;;;;12.77;100.00;97132.66;5086621;28;20204;-80
2022/11/02 08:59:35;;;;;;;5.03;2.20;;;;;;;12.92;100.00;97128.78;5090312;28;20315;-81
2022/11/02 09:02:02;;;;;;;4.60;2.50;;;;;;;13.00;100.00;97125.75;5087310;28;20200;-80
2022/11/02 09:04:29;;;;;;;3.73;2.60;;;;;;;13.01;100.00;97127.41;5091412;28;20201;-80
2022/11/02 09:06:58;;;;;;;7.80;2.37;;;;;;;13.07;100.00;97131.94;5088542;28;20204;-81
2022/11/02 09:09:25;;;;;;;4.40;2.47;;;;;;;13.16;100.00;97142.28;5083798;28;20289;-81
2022/11/02 09:11:53;;;;;;;7.93;3.03;;;;;;;13.23;100.00;97134.88;5081266;28;20197;-81
2022/11/02 09:14:20;;;;;;;4.80;2.80;;;;;;;13.33;100.00;97134.34;5085751;28;20205;-81
2022/11/02 09:16:47;;;;;;;6.60;3.20;;;;;;;13.44;100.00;97127.31;5092102;28;20209;-81
2022/11/02 09:19:14;;;;;;;7.37;3.60;;;;;;;13.52;100.00;97133.25;5085547;28;20230;-80
2022/11/02 09:21:41;;;;;;;6.87;3.43;;;;;;;13.42;100.00;97132.97;5080004;28;20202;-81
2022/11/02 09:24:10;;;;;;;9.00;3.10;;;;;;;13.32;100.00;97131.84;5083575;28;20205;-81
2022/11/02 09:26:37;;;;;;;9.13;3.43;;;;;;;13.27;100.00;97133.34;5081234;28;20232;-81
2022/11/02 09:29:04;;;;;;;5.17;3.43;;;;;;;13.29;100.00;97130.41;5086161;28;20207;-81
2022/11/02 09:31:43;;;;;;;6.67;3.80;;;;;;;13.29;100.00;97133.13;5081999;28;20264;-81
2022/11/02 09:34:10;;;;;;;4.80;3.80;;;;;;;13.19;100.00;97130.13;5076319;28;20206;-81
2022/11/02 09:36:37;;;;;;;7.37;4.00;;;;;;;13.20;100.00;97137.22;5085286;28;20205;-81
2022/11/02 09:39:04;;;;;;;10.67;3.80;;;;;;;13.25;100.00;97140.09;5082765;28;20256;-80
2022/11/02 09:41:41;;;;;;;9.27;3.50;;;;;;;13.18;100.00;97142.06;5089401;28;20197;-81
2022/11/02 09:44:13;;;;;;;7.47;3.93;;;;;;;13.19;100.00;97141.81;5090947;28;20236;-80
2022/11/02 09:46:44;;;;;;;8.90;3.40;;;;;;;13.20;100.00;97146.16;5095969;28;20208;-80
2022/11/02 09:49:15;;;;;;;8.03;3.83;;;;;;;13.19;100.00;97141.81;5085481;28;20205;-81
2022/11/02 09:51:46;;;;;;;7.93;3.73;;;;;;;13.21;100.00;97147.84;5094825;28;20200;-80
2022/11/02 09:54:19;;;;;;;7.93;3.80;;;;;;;13.22;100.00;97145.94;5092407;28;20259;-80
2022/11/02 09:56:51;;;;;;;4.93;3.50;;;;;;;13.25;100.00;97145.50;5089186;28;20268;-81
2022/11/02 09:59:20;;;;;;;4.37;3.37;;;;;;;13.28;100.00;97139.59;5083606;28;20232;-81
2022/11/02 10:02:00;;;;;;;8.33;4.00;;;;;;;13.23;100.00;97143.00;5106016;28;20192;-80
2022/11/02 10:04:44;;;;;;;8.30;3.57;;;;;;;13.23;100.00;97129.47;5087442;28;20201;-81
2022/11/02 10:07:33;;;;;;;8.10;3.57;;;;;;;13.35;100.00;97132.25;5094045;28;20299;-81
2022/11/02 10:10:04;;;;;;;6.50;3.50;;;;;;;13.41;100.00;97128.59;5082693;28;20205;-81
2022/11/02 10:12:44;;;;;;;8.87;4.10;;;;;;;13.47;100.00;97122.25;5086085;28;20214;-81
2022/11/02 10:15:17;;;;;;;28.83;15.13;;;;;;;13.45;100.00;97123.53;5088634;28;20204;-81
2022/11/02 10:17:47;;;;;;;40.37;27.00;;;;;;;13.43;100.00;97107.50;5091354;28;20208;-81
2022/11/02 10:20:24;;;;;;;13.07;8.03;;;;;;;13.61;100.00;97121.00;5094090;28;20303;-80
2022/11/02 10:22:54;;;;;;;9.53;4.50;;;;;;;13.70;100.00;97116.06;5079205;28;20201;-81
2022/11/02 10:25:23;;;;;;;10.80;4.27;;;;;;;13.82;100.00;97113.41;5078007;28;20208;-81
2022/11/02 10:28:00;;;;;;;8.80;3.90;;;;;;;13.92;100.00;97109.06;5082016;28;20196;-80
2022/11/02 10:30:28;;;;;;;7.67;4.13;;;;;;;14.03;100.00;97110.16;5074188;28;20215;-81
2022/11/02 10:32:56;;;;;;;7.53;4.17;;;;;;;14.15;100.00;97102.00;5078060;28;20213;-82
2022/11/02 10:35:30;;;;;;;8.37;4.23;;;;;;;14.30;100.00;97105.09;5082319;28;20238;-81
2022/11/02 10:38:10;;;;;;;7.37;4.03;;;;;;;14.52;100.00;97100.78;5102743;28;20209;-81
2022/11/02 10:40:52;;;;;;;9.57;3.80;;;;;;;14.71;100.00;97096.03;5087533;28;20212;-81
2022/11/02 10:43:36;;;;;;;12.73;4.67;;;;;;;14.88;100.00;97096.13;5084335;28;20291;-81
2022/11/02 10:46:19;;;;;;;8.03;4.23;;;;;;;14.86;100.00;97092.81;5085653;28;20208;-81
2022/11/02 10:49:00;;;;;;;9.40;4.50;;;;;;;15.01;100.00;97091.25;5077749;28;20204;-81
2022/11/02 10:51:30;;;;;;;7.40;4.03;;;;;;;15.32;100.00;97089.97;5086324;28;20197;-80
2022/11/02 10:54:01;;;;;;;7.77;3.03;;;;;;;15.55;100.00;97088.25;5078024;28;20213;-81
2022/11/02 10:56:31;;;;;;;8.43;3.63;;;;;;;15.68;100.00;97080.59;5089768;28;20205;-81
2022/11/02 10:59:10;;;;;;;7.23;3.40;;;;;;;15.71;100.00;97074.69;5087842;28;20229;-80
2022/11/02 11:01:38;;;;;;;5.37;2.90;;;;;;;15.66;100.00;97060.13;5087885;28;20205;-80
2022/11/02 11:04:19;;;;;;;7.47;3.07;;;;;;;15.67;100.00;97078.94;5077911;28;20282;-80
2022/11/02 11:06:47;;;;;;;5.60;2.83;;;;;;;15.52;100.00;97070.47;5086721;28;20225;-80
2022/11/02 11:09:17;;;;;;;3.50;2.80;;;;;;;15.61;100.00;97068.22;5083434;28;20208;-80
2022/11/02 11:11:54;;;;;;;4.07;2.70;;;;;;;15.45;100.00;97059.75;5074933;28;20212;-80
2022/11/02 11:14:24;;;;;;;4.50;2.90;;;;;;;15.46;100.00;97050.53;5084318;28;20295;-80
2022/11/02 11:16:53;;;;;;;13.30;2.90;;;;;;;15.40;100.00;97040.59;5078812;28;20197;-80
2022/11/02 11:19:30;;;;;;;6.63;2.80;;;;;;;15.68;100.00;97044.38;5087559;28;20227;-80
2022/11/02 11:21:57;;;;;;;6.37;2.70;;;;;;;15.66;100.00;97050.06;5087394;28;20261;-81
2022/11/02 11:24:27;;;;;;;7.00;3.17;;;;;;;15.49;100.00;97051.91;5084411;28;20203;-81
2022/11/02 11:27:15;;;;;;;4.97;3.33;;;;;;;15.41;100.00;97046.84;5083918;28;20280;-80
2022/11/02 11:29:49;;;;;;;7.67;2.97;;;;;;;15.45;100.00;97040.69;5081188;28;20197;-80
2022/11/02 11:32:22;;;;;;;6.80;3.37;;;;;;;15.45;100.00;97032.53;5084119;28;20204;-81
2022/11/02 11:35:02;;;;;;;6.23;3.37;;;;;;;15.56;100.00;97028.13;5104804;28;20224;-80
2022/11/02 11:37:29;;;;;;;7.33;3.00;;;;;;;15.67;100.00;97029.94;5082324;28;20252;-80
2022/11/02 11:40:01;;;;;;;7.57;2.50;;;;;;;15.75;100.00;97029.53;5080743;28;20224;-81
2022/11/02 11:42:31;;;;;;;3.40;2.20;;;;;;;15.70;100.00;97023.19;5081750;28;20201;-80
2022/11/02 11:45:04;;;;;;;7.53;2.93;;;;;;;15.77;100.00;97024.69;5087084;28;20216;-80
2022/11/02 11:47:37;;;;;;;5.27;2.90;;;;;;;15.70;100.00;97023.19;5086835;28;20200;-80
2022/11/02 11:50:11;;;;;;;8.70;2.73;;;;;;;15.67;100.00;97024.50;5083334;28;20197;-80
2022/11/02 11:52:39;;;;;;;3.63;2.67;;;;;;;15.52;100.00;97016.88;5098456;28;20215;-80
2022/11/02 11:55:22;;;;;;;6.13;3.20;;;;;;;15.45;100.00;97016.22;5081486;28;20201;-81
2022/11/02 11:58:05;;;;;;;8.00;3.60;;;;;;;15.40;100.00;97018.00;5085376;28;20224;-80